logo
Search for airport 
image banner adimage banner adimage banner ad
image banner ad

TFFB - Basse Terre Baillif

Located in Basse Terre, Guadeloupe

ICAO - TFFB, IATA - BBR

Data provided by Airmate  

General information

Coordinates: N16°0'48" W61°44'32"
Elevation is 64 feet MSL.
Magnetic variation is -14.86° East
View others Airports in (unassigned)

Operational data

Special qualification required
Current time UTC:
Current local time:
Weather at : TFFR - Pointe A Pitre Le Raizet ( 36 km )
METAR: TFFR 070200Z AUTO 10004KT 9999 ///TCU 24/20 Q1018
TAF: TAF TFFR 041700Z 0418/0518 10015KT 9999 SCT030 PROB30 TEMPO 0418/0424 10015G25KT 4000 SHRA SCT020TCU BECMG 0500/0502 10005KT BECMG 0511/0513 09015G25KT
View NOTAMs / SUP AIP / TFR affecting this airport [VIEW]
Communications frequencies: [VIEW]

Runways:

RWY identifierQFULength (ft)Width (ft)SurfaceLDA (ft)
14124°201849CONC2018
32304°201849CONC

Airport contact information

Address: Basse Terre Guadeloupe

Other aviation service providers

Aviation club (not for profit)

Aéroclub Basse Terre

Aéroclub Basse Terre
+330690352355

Satellite view of TFFB